• Join FlightAware (Why Join?)
  • Login
  • US Flag 
07:26AM EDT


 

Airport Tracker/Info


-or-


 

Live Flight TrackerFlight Track Log ✈ GJS3706 ✈ 03-Jul-2013 ✈ KDEN - KTUL

Flight Track Log - Related Links

Times and Time Zones

All times are in EDT time to prevent confusion due to time zone crossing. See the GJS3706 flight status page for this flight to view local times or setup timezone preferences in your user account.

Time Position Orientation Groundspeed Altitude Reporting Facility
EDT Latitude Longitude Course Direction KTS MPH feet Rate Location/Type
07:32PM 39.8833 -104.6167 113° Southeast 170 196 6,100  Level Denver TRACON
07:33PM 39.8667 -104.5667 113° Southeast 196 226 7,700 1,800 Climbing Denver TRACON
07:34PM 39.8333 -104.4833 117° Southeast 247 284 9,600 1,860 Climbing Denver TRACON
07:35PM 39.8181 -104.4200 107° East 269 310 10,900 1,680 Climbing Denver Center
07:36PM 39.7797 -104.3094 114° Southeast 310 357 12,600 1,260 Climbing Denver Center
07:37PM 39.7392 -104.1917 114° Southeast 357 411 13,600 1,080 Climbing Denver Center
07:38PM 39.6925 -104.0625 115° Southeast 393 452 14,900 1,500 Climbing Denver Center
07:39PM 39.6422 -103.9167 114° Southeast 413 475 16,700 1,500 Climbing Denver Center
07:40PM 39.5867 -103.7831 118° Southeast 422 486 18,100 1,200 Climbing Denver Center
07:41PM 39.5525 -103.6486 108° East 415 478 19,300 1,380 Climbing Denver Center
07:42PM 39.5058 -103.4675 108° East 440 506 21,000 1,500 Climbing Denver Center
07:43PM 39.4653 -103.3136 109° East 450 518 22,400 1,260 Climbing Denver Center
07:44PM 39.4239 -103.1606 109° East 452 520 23,700 1,140 Climbing Denver Center
07:45PM 39.3819 -103.0031 109° East 462 532 24,800 1,080 Climbing Denver Center
07:46PM 39.3389 -102.8444 109° East 467 537 26,000 1,020 Climbing Denver Center
07:47PM 39.2900 -102.6619 109° East 474 545 27,000 480 Climbing Denver Center
07:48PM 39.2469 -102.5069 110° East 479 551 27,000  Level Denver Center
07:49PM 39.1975 -102.3247 109° East 481 554 27,000  Level Denver Center
07:50PM 39.1544 -102.1669 109° East 486 559 27,000  Level Denver Center
07:51PM 39.0819 -101.9936 118° Southeast 493 567 27,000  Level Denver Center
07:52PM 39.0197 -101.8464 119° Southeast 491 565 27,000  Level Denver Center
07:53PM 38.9461 -101.6722 118° Southeast 494 568 27,000  Level Denver Center
07:54PM 38.8831 -101.5272 119° Southeast 489 563 27,000  Level Denver Center
07:55PM 38.8097 -101.3553 119° Southeast 490 564 27,000  Level Denver Center
07:56PM 38.7556 -101.2336 120° Southeast 492 566 27,000  Level Denver Center
07:57PM 38.6808 -101.0625 119° Southeast 492 566 27,000  Level Denver Center
07:58PM 38.6056 -100.8942 120° Southeast 489 563 27,000  Level Denver Center
07:59PM 38.5314 -100.7256 119° Southeast 486 559 27,000  Level Denver Center
08:00PM 38.4675 -100.5842 120° Southeast 480 552 27,000  Level Denver Center
08:01PM 38.4150 -100.4661 120° Southeast 474 545 27,000  Level Kansas City Center
08:02PM 38.3525 -100.3283 120° Southeast 470 541 27,000  Level Kansas City Center
08:03PM 38.2789 -100.1681 120° Southeast 468 539 27,000  Level Kansas City Center
08:04PM 38.2153 -100.0278 120° Southeast 473 544 27,000  Level Kansas City Center
08:05PM 38.1411 -99.8653 120° Southeast 475 547 27,000  Level Kansas City Center
08:06PM 38.0769 -99.7256 120° Southeast 476 548 27,000  Level Kansas City Center
08:07PM 38.0011 -99.5633 121° Southeast 476 548 27,000  Level Kansas City Center
08:09PM 37.9400 -99.4333 121° Southeast 478 550 27,000  Level Kansas City Center
08:10PM 37.8731 -99.2889 120° Southeast 479 551 27,000  Level Kansas City Center
08:11PM 37.8058 -99.1458 121° Southeast 476 548 27,000  Level Kansas City Center
08:12PM 37.7244 -98.9722 121° Southeast 478 550 27,000  Level Kansas City Center
08:13PM 37.6558 -98.8281 121° Southeast 480 552 27,000  Level Kansas City Center
08:14PM 37.5867 -98.6833 121° Southeast 483 556 27,000  Level Kansas City Center
08:15PM 37.5192 -98.5397 121° Southeast 482 555 27,000  Level Kansas City Center
08:16PM 37.4494 -98.3969 122° Southeast 482 555 27,000  Level Kansas City Center
08:17PM 37.3808 -98.2536 121° Southeast 482 555 27,000  Level Kansas City Center
08:18PM 37.2978 -98.0836 122° Southeast 480 552 27,000  Level Kansas City Center
08:19PM 37.2278 -97.9403 121° Southeast 482 555 27,000  Level Kansas City Center
08:20PM 37.1583 -97.7981 121° Southeast 481 554 27,000  Level Kansas City Center
08:21PM 37.0878 -97.6547 122° Southeast 483 556 27,000 -180 Level Kansas City Center
08:22PM 37.0192 -97.5089 120° Southeast 487 560 26,700 -1,500 Descending Kansas City Center
08:23PM 36.9500 -97.3642 121° Southeast 488 562 24,000 -3,120 Descending Kansas City Center
08:24PM 36.8692 -97.2011 122° Southeast 469 540 20,400 -3,300 Descending Kansas City Center
08:25PM 36.8017 -97.0706 123° Southeast 442 509 17,300 -2,880 Descending Kansas City Center
08:26PM 36.7414 -96.9500 122° Southeast 416 479 14,500 -2,460 Descending Kansas City Center
08:27PM 36.6836 -96.8347 122° Southeast 401 461 12,300 -1,860 Descending Kansas City Center
08:28PM 36.6253 -96.7236 123° Southeast 392 451 10,700 -1,140 Descending Kansas City Center
08:29PM 36.5714 -96.6122 121° Southeast 367 422 10,100 -420 Descending Kansas City Center
08:30PM 36.5189 -96.5156 124° Southeast 364 419 9,900 -720 Descending Kansas City Center
08:31PM 36.4883 -96.4256 113° Southeast 314 361 8,700 -1,440 Descending Kansas City Center
08:32PM 36.4539 -96.3194 112° Southeast 289 333 7,000 -1,320 Descending Kansas City Center
08:33PM 36.4267 -96.2367 112° Southeast 274 315 6,000 -720 Descending Kansas City Center
08:34PM 36.4011 -96.1592 112° Southeast 258 297 5,600 -1,140 Descending Kansas City Center
08:35PM 36.3756 -96.0831 113° Southeast 246 283 3,700 -1,560 Descending Kansas City Center
08:36PM 36.3492 -96.0022 112° Southeast 248 285 2,500 -600 Descending Kansas City Center
08:37PM 36.3258 -95.9314 112° Southeast 237 273 2,500 -120 Level Kansas City Center
08:38PM 36.3008 -95.8831 123° Southeast 204 235 2,300 -480 Descending Kansas City Center
08:39PM 36.2553 -95.8789 176° South 127 146 1,500 -780 Descending Kansas City Center
08:40PM 36.2169 -95.8808 182° South 142 163 800 -720 Descending Kansas City Center
08:42PM 36.1984 -95.8881 187° South  Level Estimated
08:49PM 36.1984 -95.8881 187° South  Level Estimated